Time;durP1;ratioP1;P1;durP2;ratioP2;P2;SDS_P1;SDS_P2;PMS_P1;PMS_P2;Temp;Humidity;BMP_temperature;BMP_pressure;BME280_temperature;BME280_humidity;BME280_pressure;Samples;Min_cycle;Max_cycle;Signal;HPM_P1;HPM_P2
2022/03/11 00:02:25;;;;;;;;;;;;;;;-1.74;52.23;102898.32;1697046;84;20200;-81
2022/03/11 00:04:51;;;;;;;;;;;;;;;-1.76;52.25;102900.26;1673642;85;20158;-82
2022/03/11 00:07:16;;;;;;;;;;;;;;;-1.77;52.25;102904.83;1693943;83;20563;-81
2022/03/11 00:09:42;;;;;;;;;;;;;;;-1.80;52.24;102902.96;1704840;83;20172;-81
2022/03/11 00:12:09;;;;;;;;;;;;;;;-1.83;52.24;102904.40;1686071;84;20506;-81
2022/03/11 00:14:36;;;;;;;;;;;;;;;-1.84;52.28;102905.17;1673570;85;20179;-81
2022/03/11 00:17:02;;;;;;;;;;;;;;;-1.88;52.25;102902.80;1691963;84;20129;-81
2022/03/11 00:19:29;;;;;;;;;;;;;;;-1.91;52.27;102901.31;1702111;83;20133;-81
2022/03/11 00:21:55;;;;;;;;;;;;;;;-1.92;52.31;102902.48;1692118;84;20137;-81
2022/03/11 00:24:22;;;;;;;;;;;;;;;-1.94;52.29;102897.69;1658232;84;20117;-81
2022/03/11 00:26:48;;;;;;;;;;;;;;;-1.96;52.36;102899.23;1690378;84;20175;-81
2022/03/11 00:29:14;;;;;;;;;;;;;;;-1.99;52.36;102894.82;1702226;84;20417;-81
2022/03/11 00:31:40;;;;;;;;;;;;;;;-2.01;52.36;102896.37;1702441;84;20684;-81
2022/03/11 00:34:06;;;;;;;;;;;;;;;-2.02;52.41;102894.60;1701510;82;20133;-81
2022/03/11 00:36:32;;;;;;;;;;;;;;;-2.05;52.40;102894.00;1692304;84;20202;-81
2022/03/11 00:38:58;;;;;;;;;;;;;;;-2.06;52.36;102901.11;1701954;83;20188;-82
2022/03/11 00:41:24;;;;;;;;;;;;;;;-2.08;52.33;102896.73;1701848;84;20181;-81
2022/03/11 00:43:50;;;;;;;;;;;;;;;-2.10;52.39;102891.55;1685389;84;20202;-81
2022/03/11 00:46:19;;;;;;;;;;;;;;;-2.10;52.40;102893.20;1686274;84;20224;-81
2022/03/11 00:48:45;;;;;;;;;;;;;;;-2.12;52.43;102898.16;1701365;84;20537;-81
2022/03/11 00:51:11;;;;;;;;;;;;;;;-2.13;52.45;102898.05;1701938;83;20336;-81
2022/03/11 00:53:37;;;;;;;;;;;;;;;-2.14;52.41;102887.42;1700182;84;20721;-82
2022/03/11 00:56:03;;;;;;;;;;;;;;;-2.15;52.46;102891.99;1673662;84;20480;-82
2022/03/11 00:58:28;;;;;;;;;;;;;;;-2.16;52.51;102887.31;1673713;85;20877;-82
2022/03/11 01:00:55;;;;;;;;;;;;;;;-2.17;52.47;102887.20;1678585;84;20205;-82
2022/03/11 01:03:21;;;;;;;;;;;;;;;-2.19;52.48;102887.09;1681886;84;20179;-81
2022/03/11 01:05:46;;;;;;;;;;;;;;;-2.19;52.51;102882.41;1673665;85;20190;-81
2022/03/11 01:08:12;;;;;;;;;;;;;;;-2.22;52.50;102881.80;1674084;85;20492;-81
2022/03/11 01:10:38;;;;;;;;;;;;;;;-2.22;52.52;102880.92;1689831;84;20312;-81
2022/03/11 01:13:06;;;;;;;;;;;;;;;-2.23;52.45;102881.69;1669321;84;392454;-81
2022/03/11 01:15:32;;;;;;;;;;;;;;;-2.25;52.54;102882.84;1676987;82;20513;-81
2022/03/11 01:17:58;;;;;;;;;;;;;;;-2.26;52.54;102884.00;1661904;85;20197;-81
2022/03/11 01:20:24;;;;;;;;;;;;;;;-2.28;52.54;102882.62;1676189;85;20200;-81
2022/03/11 01:22:50;;;;;;;;;;;;;;;-2.29;52.58;102878.33;1676810;82;20117;-81
2022/03/11 01:25:16;;;;;;;;;;;;;;;-2.30;52.54;102882.90;1704091;84;20210;-81
2022/03/11 01:27:42;;;;;;;;;;;;;;;-2.34;52.50;102880.53;1704537;84;20177;-81
2022/03/11 01:30:09;;;;;;;;;;;;;;;-2.36;52.53;102873.20;1702244;82;20186;-81
2022/03/11 01:32:36;;;;;;;;;;;;;;;-2.37;52.61;102881.95;1676090;84;20205;-81
2022/03/11 01:35:02;;;;;;;;;;;;;;;-2.39;52.63;102875.89;1678882;82;20106;-81
2022/03/11 01:37:28;;;;;;;;;;;;;;;-2.39;52.62;102878.05;1693324;84;20109;-81
2022/03/11 01:39:54;;;;;;;;;;;;;;;-2.40;52.57;102885.15;1693159;82;20196;-81
2022/03/11 01:42:20;;;;;;;;;;;;;;;-2.42;52.67;102884.54;1704632;84;20245;-81
2022/03/11 01:44:46;;;;;;;;;;;;;;;-2.43;52.69;102876.44;1685265;83;20400;-81
2022/03/11 01:47:11;;;;;;;;;;;;;;;-2.45;52.69;102876.72;1663447;85;20470;-81
2022/03/11 01:49:37;;;;;;;;;;;;;;;-2.48;52.66;102873.96;1675866;82;20189;-80
2022/03/11 01:52:04;;;;;;;;;;;;;;;-2.49;52.69;102873.47;1675813;84;20176;-80
2022/03/11 01:54:29;;;;;;;;;;;;;;;-2.50;52.68;102874.23;1675555;85;20193;-81
2022/03/11 01:56:55;;;;;;;;;;;;;;;-2.50;52.77;102876.38;1676060;85;20372;-81
2022/03/11 01:59:21;;;;;;;;;;;;;;;-2.52;52.72;102875.77;1678824;82;20172;-81
2022/03/11 02:01:47;;;;;;;;;;;;;;;-2.54;52.74;102878.19;1679013;84;20176;-81
2022/03/11 02:04:13;;;;;;;;;;;;;;;-2.56;52.77;102877.20;1680619;82;20253;-81
2022/03/11 02:06:38;;;;;;;;;;;;;;;-2.56;52.79;102880.12;1684282;84;20192;-81
2022/03/11 02:09:04;;;;;;;;;;;;;;;-2.60;52.72;102877.78;1676109;85;20255;-82
2022/03/11 02:11:30;;;;;;;;;;;;;;;-2.62;52.77;102878.43;1688692;82;20183;-81
2022/03/11 02:13:58;;;;;;;;;;;;;;;-2.64;52.79;102881.23;1690185;84;20182;-81
2022/03/11 02:16:26;;;;;;;;;;;;;;;-2.66;52.75;102878.59;1705524;84;20107;-81
2022/03/11 02:18:52;;;;;;;;;;;;;;;-2.69;52.83;102876.72;1704586;82;20103;-80
2022/03/11 02:21:20;;;;;;;;;;;;;;;-2.68;52.81;102886.45;1694807;84;20091;-80
2022/03/11 02:23:52;;;;;;;;;;;;;;;-2.69;52.86;102885.96;1705870;84;20092;-80
2022/03/11 02:26:20;;;;;;;;;;;;;;;-2.72;52.79;102885.34;1701597;82;20103;-81
2022/03/11 02:28:47;;;;;;;;;;;;;;;-2.74;52.87;102885.62;1693289;82;20129;-80
2022/03/11 02:31:20;;;;;;;;;;;;;;;-2.75;52.82;102893.10;1695808;82;20133;-80
2022/03/11 02:33:46;;;;;;;;;;;;;;;-2.78;52.86;102883.63;1687476;84;20093;-80
2022/03/11 02:36:12;;;;;;;;;;;;;;;-2.80;52.88;102879.22;1705605;84;20099;-80
2022/03/11 02:38:38;;;;;;;;;;;;;;;-2.82;52.85;102889.23;1705796;84;20221;-80
2022/03/11 02:41:04;;;;;;;;;;;;;;;-2.88;52.86;102882.45;1701545;83;20183;-80
2022/03/11 02:43:30;;;;;;;;;;;;;;;-2.90;52.93;102889.05;1677049;82;20137;-81
2022/03/11 02:45:56;;;;;;;;;;;;;;;-2.93;52.98;102890.46;1669540;84;20193;-81
2022/03/11 02:48:21;;;;;;;;;;;;;;;-2.92;53.04;102880.84;1704139;84;20230;-81
2022/03/11 02:50:54;;;;;;;;;;;;;;;-2.95;53.04;102886.55;1699350;83;20171;-81
2022/03/11 02:53:20;;;;;;;;;;;;;;;-2.97;53.05;102894.80;1687810;84;20180;-80
2022/03/11 02:55:46;;;;;;;;;;;;;;;-3.02;53.07;102887.73;1704283;84;20209;-80
2022/03/11 02:58:12;;;;;;;;;;;;;;;-3.05;53.09;102892.95;1693256;82;20276;-81
2022/03/11 03:00:38;;;;;;;;;;;;;;;-3.08;53.13;102884.74;1676079;84;20262;-81
2022/03/11 03:03:03;;;;;;;;;;;;;;;-3.09;53.14;102893.48;1676179;85;20180;-81
2022/03/11 03:05:31;;;;;;;;;;;;;;;-3.14;53.13;102893.17;1676231;82;20200;-81
2022/03/11 03:07:56;;;;;;;;;;;;;;;-3.16;53.12;102897.23;1688494;84;20184;-81
2022/03/11 03:10:22;;;;;;;;;;;;;;;-3.16;53.18;102894.70;1661224;85;20157;-81
2022/03/11 03:12:48;;;;;;;;;;;;;;;-3.20;53.07;102895.62;1683195;81;20209;-81
2022/03/11 03:15:14;;;;;;;;;;;;;;;-3.24;53.13;102897.41;1676064;85;20200;-81
2022/03/11 03:17:40;;;;;;;;;;;;;;;-3.27;53.25;102899.70;1704036;84;20178;-81
2022/03/11 03:20:08;;;;;;;;;;;;;;;-3.28;53.28;102890.36;1700399;82;20223;-81
2022/03/11 03:22:34;;;;;;;;;;;;;;;-3.30;53.31;102894.41;1675926;84;21036;-81
2022/03/11 03:25:00;;;;;;;;;;;;;;;-3.32;53.28;102896.83;1675969;85;20197;-81
2022/03/11 03:27:26;;;;;;;;;;;;;;;-3.35;53.29;102892.80;1677698;82;20190;-81
2022/03/11 03:29:52;;;;;;;;;;;;;;;-3.37;53.24;102890.15;1676071;84;20188;-81
2022/03/11 03:32:18;;;;;;;;;;;;;;;-3.37;53.33;102891.80;1675857;85;20229;-81
2022/03/11 03:34:44;;;;;;;;;;;;;;;-3.40;53.24;102886.50;1676135;82;20204;-81
2022/03/11 03:37:11;;;;;;;;;;;;;;;-3.41;53.33;102883.47;1675946;84;20243;-81
2022/03/11 03:39:39;;;;;;;;;;;;;;;-3.42;53.37;102890.18;1677525;85;20098;-81
2022/03/11 03:42:06;;;;;;;;;;;;;;;-3.44;53.33;102894.23;1666632;83;20093;-81
2022/03/11 03:44:32;;;;;;;;;;;;;;;-3.45;53.38;102892.47;1681133;84;20121;-80
2022/03/11 03:46:58;;;;;;;;;;;;;;;-3.47;53.32;102886.80;1696109;84;20200;-80
2022/03/11 03:49:25;;;;;;;;;;;;;;;-3.48;53.39;102887.18;1704499;84;20187;-80
2022/03/11 03:51:51;;;;;;;;;;;;;;;-3.48;53.31;102888.83;1695281;83;20245;-80
2022/03/11 03:54:18;;;;;;;;;;;;;;;-3.50;53.46;102894.14;1713296;82;20473;-81
2022/03/11 03:56:45;;;;;;;;;;;;;;;-3.49;53.45;102890.85;1682319;84;20185;-81
2022/03/11 03:59:11;;;;;;;;;;;;;;;-3.50;53.51;102890.35;1676582;82;20177;-81
2022/03/11 04:01:40;;;;;;;;;;;;;;;-3.49;53.46;102895.91;1683015;83;20106;-81
2022/03/11 04:04:07;;;;;;;;;;;;;;;-3.51;53.51;102888.20;1684934;82;20098;-82
2022/03/11 04:06:34;;;;;;;;;;;;;;;-3.51;53.48;102894.53;1683367;84;20083;-81
2022/03/11 04:09:01;;;;;;;;;;;;;;;-3.51;53.48;102894.91;1705786;83;20099;-81
2022/03/11 04:11:28;;;;;;;;;;;;;;;-3.53;53.54;102898.97;1693314;82;20125;-81
2022/03/11 04:13:54;;;;;;;;;;;;;;;-3.55;53.56;102897.97;1687255;84;20094;-81
2022/03/11 04:16:20;;;;;;;;;;;;;;;-3.56;53.58;102890.76;1678872;83;20134;-81
2022/03/11 04:18:47;;;;;;;;;;;;;;;-3.55;53.60;102895.44;1689384;84;20129;-81
2022/03/11 04:21:13;;;;;;;;;;;;;;;-3.55;53.55;102899.23;1677529;85;20102;-80
2022/03/11 04:23:42;;;;;;;;;;;;;;;-3.56;53.61;102905.93;1688961;83;20094;-81
2022/03/11 04:26:08;;;;;;;;;;;;;;;-3.56;53.60;102894.94;1697500;83;20812;-81
2022/03/11 04:28:33;;;;;;;;;;;;;;;-3.58;53.68;102896.46;1688742;84;20103;-81
2022/03/11 04:30:59;;;;;;;;;;;;;;;-3.60;53.61;102895.46;1706135;84;20162;-81
2022/03/11 04:33:26;;;;;;;;;;;;;;;-3.62;53.72;102901.66;1678886;83;20106;-81
2022/03/11 04:35:52;;;;;;;;;;;;;;;-3.63;53.68;102897.37;1681530;83;20106;-81
2022/03/11 04:38:18;;;;;;;;;;;;;;;-3.63;53.75;102902.80;1681555;84;20093;-81
2022/03/11 04:40:50;;;;;;;;;;;;;;;-3.65;53.81;102896.40;1699343;83;20155;-81
2022/03/11 04:43:16;;;;;;;;;;;;;;;-3.69;53.76;102891.48;1694722;83;20206;-81
2022/03/11 04:45:42;;;;;;;;;;;;;;;-3.70;53.79;102893.89;1620969;87;20265;-81
2022/03/11 04:48:09;;;;;;;;;;;;;;;-3.72;53.77;102891.63;1698121;84;20149;-81
2022/03/11 04:50:35;;;;;;;;;;;;;;;-3.75;53.83;102883.80;1698182;83;20161;-81
2022/03/11 04:53:01;;;;;;;;;;;;;;;-3.78;53.79;102884.83;1680982;84;20184;-80
2022/03/11 04:55:26;;;;;;;;;;;;;;;-3.82;53.82;102883.70;1689170;84;20279;-80
2022/03/11 04:57:52;;;;;;;;;;;;;;;-3.83;53.82;102884.84;1619521;87;20217;-80
2022/03/11 05:00:18;;;;;;;;;;;;;;;-3.85;53.89;102888.91;1619176;86;20293;-80
2022/03/11 05:02:47;;;;;;;;;;;;;;;-3.87;53.86;102883.72;1642101;85;20193;-80
2022/03/11 05:05:14;;;;;;;;;;;;;;;-3.87;53.90;102889.16;1633899;87;20180;-79
2022/03/11 05:07:40;;;;;;;;;;;;;;;-3.88;53.84;102892.07;1641518;85;21051;-79
2022/03/11 05:10:09;;;;;;;;;;;;;;;-3.88;53.88;102899.66;1645680;87;20201;-77
2022/03/11 05:12:37;;;;;;;;;;;;;;;-3.88;53.88;102891.19;1648296;85;20163;-77
2022/03/11 05:15:05;;;;;;;;;;;;;;;-3.86;53.94;102902.30;1647041;87;20127;-76
2022/03/11 05:17:31;;;;;;;;;;;;;;;-3.87;53.94;102895.09;1645837;85;20132;-76
2022/03/11 05:19:57;;;;;;;;;;;;;;;-3.85;53.93;102894.84;1625967;87;20190;-76
2022/03/11 05:22:23;;;;;;;;;;;;;;;-3.83;53.97;102894.96;1626189;85;20118;-76
2022/03/11 05:24:49;;;;;;;;;;;;;;;-3.81;53.94;102898.48;1637955;85;20186;-76
2022/03/11 05:27:15;;;;;;;;;;;;;;;-3.80;53.94;102898.99;1651597;85;20582;-76
2022/03/11 05:29:41;;;;;;;;;;;;;;;-3.79;53.93;102899.49;1635483;85;20170;-76
2022/03/11 05:32:08;;;;;;;;;;;;;;;-3.77;53.89;102904.29;1652137;85;20187;-76
2022/03/11 05:34:34;;;;;;;;;;;;;;;-3.76;53.90;102899.73;1648585;85;20108;-77
2022/03/11 05:37:01;;;;;;;;;;;;;;;-3.75;53.80;102905.29;1640859;86;20088;-76
2022/03/11 05:39:26;;;;;;;;;;;;;;;-3.73;53.95;102903.77;1653685;86;20135;-75
2022/03/11 05:41:52;;;;;;;;;;;;;;;-3.71;53.89;102906.91;1650944;85;20128;-75
2022/03/11 05:44:18;;;;;;;;;;;;;;;-3.67;54.01;102906.39;1641989;85;20207;-75
2022/03/11 05:46:45;;;;;;;;;;;;;;;-3.64;53.92;102914.98;1640205;87;20476;-75
2022/03/11 05:49:17;;;;;;;;;;;;;;;-3.62;53.91;102915.56;1639231;85;20150;-75
2022/03/11 05:51:42;;;;;;;;;;;;;;;-3.55;53.93;102916.55;1646869;87;20111;-76
2022/03/11 05:54:08;;;;;;;;;;;;;;;-3.48;54.08;102917.52;1643906;85;20159;-76
2022/03/11 05:56:38;;;;;;;;;;;;;;;-3.39;54.01;102914.83;1650792;87;20207;-76
2022/03/11 05:59:02;;;;;;;;;;;;;;;-3.27;54.03;102919.95;1630977;86;20114;-76
2022/03/11 06:01:28;;;;;;;;;;;;;;;-3.12;54.13;102918.59;1625796;87;20518;-76
2022/03/11 06:04:01;;;;;;;;;;;;;;;-2.95;54.10;102918.19;1648129;85;20475;-75
2022/03/11 06:06:28;;;;;;;;;;;;;;;-2.74;54.18;102920.19;1641791;85;20096;-75
2022/03/11 06:08:54;;;;;;;;;;;;;;;-2.49;54.23;102917.79;1637938;87;20128;-76
2022/03/11 06:11:21;;;;;;;;;;;;;;;-2.24;54.24;102921.35;1637135;85;20225;-76
2022/03/11 06:13:47;;;;;;;;;;;;;;;-1.95;54.28;102920.00;1631369;85;20459;-76
2022/03/11 06:16:13;;;;;;;;;;;;;;;-1.71;54.18;102923.91;1649932;85;21012;-76
2022/03/11 06:18:39;;;;;;;;;;;;;;;-1.48;54.23;102919.53;1650998;87;20539;-75
2022/03/11 06:21:05;;;;;;;;;;;;;;;-1.29;54.15;102927.64;1637189;85;20633;-75
2022/03/11 06:23:31;;;;;;;;;;;;;;;-1.06;54.23;102924.15;1650375;87;20190;-77
2022/03/11 06:25:58;;;;;;;;;;;;;;;-0.83;54.27;102929.48;1650283;87;20894;-76
2022/03/11 06:28:25;;;;;;;;;;;;;;;-0.62;54.25;102923.30;1644971;85;20126;-75
2022/03/11 06:30:51;;;;;;;;;;;;;;;-0.45;54.12;102927.80;1644999;85;20226;-75
2022/03/11 06:33:16;;;;;;;;;;;;;;;-0.28;54.16;102920.40;1647177;85;21072;-75
2022/03/11 06:35:42;;;;;;;;;;;;;;;-0.14;54.29;102918.36;1627210;85;21038;-75
2022/03/11 06:38:08;;;;;;;;;;;;;;;-0.01;54.18;102920.91;1632937;86;21109;-75
2022/03/11 06:40:35;;;;;;;;;;;;;;;0.06;54.07;102928.50;1635926;86;20447;-76
2022/03/11 06:43:00;;;;;;;;;;;;;;;0.15;54.25;102927.42;1641239;87;20892;-76
2022/03/11 06:45:26;;;;;;;;;;;;;;;0.27;54.28;102929.86;1630455;86;20748;-76
2022/03/11 06:47:52;;;;;;;;;;;;;;;0.43;54.38;102926.61;1640053;86;20112;-76
2022/03/11 06:50:18;;;;;;;;;;;;;;;0.49;54.25;102926.60;1385023;84;10000565;-76
2022/03/11 06:52:45;;;;;;;;;;;;;;;0.55;53.73;102925.67;1600715;86;20404;-76
2022/03/11 06:55:11;;;;;;;;;;;;;;;0.63;54.06;102929.97;1635443;86;20133;-76
2022/03/11 06:57:37;;;;;;;;;;;;;;;0.73;54.27;102937.78;1636803;86;20533;-76
2022/03/11 07:00:05;;;;;;;;;;;;;;;0.85;54.27;102937.25;1640357;87;20190;-76
2022/03/11 07:02:31;;;;;;;;;;;;;;;1.03;54.40;102934.55;1634374;86;20185;-76
2022/03/11 07:04:57;;;;;;;;;;;;;;;1.08;54.19;102939.48;1635321;86;20416;-76
2022/03/11 07:07:23;;;;;;;;;;;;;;;1.20;54.32;102933.85;1632787;87;20175;-76
2022/03/11 07:09:50;;;;;;;;;;;;;;;1.53;54.51;102935.34;1642363;87;20178;-76
2022/03/11 07:12:16;;;;;;;;;;;;;;;1.85;54.23;102932.06;1627482;86;20410;-76
2022/03/11 07:14:43;;;;;;;;;;;;;;;2.04;54.16;102934.86;1640877;86;20517;-76
2022/03/11 07:17:09;;;;;;;;;;;;;;;2.15;54.20;102924.81;1643524;85;20419;-76
2022/03/11 07:19:35;;;;;;;;;;;;;;;2.30;54.22;102929.88;1634833;85;20428;-76
2022/03/11 07:22:03;;;;;;;;;;;;;;;2.47;54.28;102931.69;1637258;87;21031;-76
2022/03/11 07:24:30;;;;;;;;;;;;;;;2.57;54.01;102919.89;1635494;85;20423;-76
2022/03/11 07:26:56;;;;;;;;;;;;;;;2.59;54.22;102917.02;1646842;87;20425;-76
2022/03/11 07:29:22;;;;;;;;;;;;;;;2.63;54.22;102918.91;1637148;85;20784;-76
2022/03/11 07:31:48;;;;;;;;;;;;;;;2.78;54.22;102920.12;1632992;87;20858;-76
2022/03/11 07:34:16;;;;;;;;;;;;;;;2.91;53.94;102921.25;1643353;85;20475;-76
2022/03/11 07:36:43;;;;;;;;;;;;;;;3.06;53.71;102916.45;1613269;86;20099;-76
2022/03/11 07:39:10;;;;;;;;;;;;;;;3.07;53.88;102911.42;1614673;87;20487;-76
2022/03/11 07:41:36;;;;;;;;;;;;;;;3.14;54.36;102908.34;1638334;85;20714;-76
2022/03/11 07:44:03;;;;;;;;;;;;;;;3.21;54.13;102914.65;1637132;85;20333;-76
2022/03/11 07:46:30;;;;;;;;;;;;;;;3.26;53.82;102912.80;1645611;87;20237;-77
2022/03/11 07:48:57;;;;;;;;;;;;;;;3.35;54.01;102902.16;1692658;83;20603;-76
2022/03/11 07:51:25;;;;;;;;;;;;;;;3.59;54.16;102908.91;1703651;84;20087;-76
2022/03/11 07:53:51;;;;;;;;;;;;;;;3.83;53.96;102911.75;1700676;82;20464;-75
2022/03/11 07:56:17;;;;;;;;;;;;;;;4.01;53.89;102907.52;1706168;82;20137;-75
2022/03/11 07:58:43;;;;;;;;;;;;;;;4.17;54.06;102907.80;1700019;82;20582;-75
2022/03/11 08:01:10;;;;;;;;;;;;;;;4.17;54.20;102912.92;1705148;82;20884;-76
2022/03/11 08:03:41;;;;;;;;;;;;;;;4.04;54.09;102914.06;1704626;82;20457;-76
2022/03/11 08:06:04;;;;;;;;;;;;;;;3.87;54.30;102912.38;1689048;82;20173;-76
2022/03/11 08:08:31;;;;;;;;;;;;;;;3.86;54.20;102921.73;1690605;82;20105;-76
2022/03/11 08:10:57;;;;;;;;;;;;;;;3.86;54.40;102915.73;1688306;82;20130;-76
2022/03/11 08:13:23;;;;;;;;;;;;;;;3.77;54.10;102918.73;1691786;82;20157;-76
2022/03/11 08:15:50;;;;;;;;;;;;;;;3.64;54.21;102913.81;1697927;82;20170;-76
2022/03/11 08:18:15;;;;;;;;;;;;;;;3.64;54.02;102909.57;1697112;82;20753;-76
2022/03/11 08:20:42;;;;;;;;;;;;;;;3.65;54.20;102911.73;1693111;82;20138;-76
2022/03/11 08:23:08;;;;;;;;;;;;;;;3.62;54.00;102911.61;1694886;82;20173;-76
2022/03/11 08:25:36;;;;;;;;;;;;;;;3.54;53.80;102911.63;1694388;82;20835;-76
2022/03/11 08:28:04;;;;;;;;;;;;;;;3.45;53.18;102909.89;1690531;82;20122;-76
2022/03/11 08:30:30;;;;;;;;;;;;;;;3.35;53.40;102905.12;1687498;82;20105;-76
2022/03/11 08:32:57;;;;;;;;;;;;;;;3.27;53.15;102909.84;1690264;82;20417;-76
2022/03/11 08:35:25;;;;;;;;;;;;;;;3.17;52.70;102899.55;1690971;82;20445;-76
2022/03/11 08:37:51;;;;;;;;;;;;;;;3.18;53.25;102905.55;1691323;82;20484;-76
2022/03/11 08:40:23;;;;;;;;;;;;;;;3.26;53.29;102898.74;1699530;82;20201;-76
2022/03/11 08:42:45;;;;;;;;;;;;;;;3.36;52.81;102904.32;1700881;82;20487;-76
2022/03/11 08:45:11;;;;;;;;;;;;;;;3.33;52.48;102893.53;1704290;82;20792;-76
2022/03/11 08:47:37;;;;;;;;;;;;;;;3.31;52.83;102894.73;1694574;82;20101;-76
2022/03/11 08:50:04;;;;;;;;;;;;;;;3.27;52.46;102891.55;1694200;82;20338;-76
2022/03/11 08:52:31;;;;;;;;;;;;;;;3.20;51.78;102897.55;1684845;82;515009;-76
2022/03/11 08:54:57;;;;;;;;;;;;;;;3.15;52.65;102902.44;1677861;82;20174;-77
2022/03/11 08:57:23;;;;;;;;;;;;;;;3.05;52.24;102900.23;1679924;82;20101;-77
2022/03/11 08:59:51;;;;;;;;;;;;;;;2.90;51.99;102898.17;1682058;82;20191;-77
2022/03/11 09:02:17;;;;;;;;;;;;;;;2.77;52.39;102901.77;1678300;82;20188;-77
2022/03/11 09:04:43;;;;;;;;;;;;;;;2.68;52.06;102901.67;1685717;82;20217;-76
2022/03/11 09:07:10;;;;;;;;;;;;;;;2.64;51.71;102898.95;1695776;82;20229;-76
2022/03/11 09:09:36;;;;;;;;;;;;;;;2.57;51.87;102898.19;1687584;82;20358;-76
2022/03/11 09:12:04;;;;;;;;;;;;;;;2.57;51.76;102908.80;1686694;82;20225;-76
2022/03/11 09:14:30;;;;;;;;;;;;;;;2.53;51.58;102903.05;1704008;82;20166;-76
2022/03/11 09:16:57;;;;;;;;;;;;;;;2.45;50.84;102901.36;1698505;82;20434;-76
2022/03/11 09:19:22;;;;;;;;;;;;;;;2.36;51.16;102899.98;1686826;83;20102;-76
2022/03/11 09:21:48;;;;;;;;;;;;;;;2.27;50.85;102902.52;1687464;82;20674;-76
2022/03/11 09:24:15;;;;;;;;;;;;;;;2.17;51.12;102901.53;1690728;82;20755;-76
2022/03/11 09:26:41;;;;;;;;;;;;;;;2.13;51.25;102889.39;1690893;82;20166;-77
2022/03/11 09:29:07;;;;;;;;;;;;;;;2.10;51.02;102890.50;1695480;82;20111;-76
2022/03/11 09:31:34;;;;;;;;;;;;;;;2.11;50.38;102885.00;1702373;82;20144;-76
2022/03/11 09:34:00;;;;;;;;;;;;;;;2.08;50.20;102886.98;1687657;82;20118;-76
2022/03/11 09:36:26;;;;;;;;;;;;;;;2.07;50.33;102889.48;1687586;82;20208;-76
2022/03/11 09:38:52;;;;;;;;;;;;;;;2.06;50.13;102886.06;1699863;82;20094;-76
2022/03/11 09:41:20;;;;;;;;;;;;;;;2.09;50.64;102882.37;1689033;82;20126;-76
2022/03/11 09:43:46;;;;;;;;;;;;;;;2.14;50.67;102887.33;1666101;83;20110;-76
2022/03/11 09:46:13;;;;;;;;;;;;;;;2.21;50.11;102883.44;1690941;82;20122;-77
2022/03/11 09:48:41;;;;;;;;;;;;;;;2.26;50.48;102873.08;1679971;83;20110;-77
2022/03/11 09:51:09;;;;;;;;;;;;;;;2.31;50.34;102874.20;1680148;82;20130;-77
2022/03/11 09:53:35;;;;;;;;;;;;;;;2.41;49.81;102884.11;1683695;82;20462;-76
2022/03/11 09:56:02;;;;;;;;;;;;;;;2.42;49.44;102884.99;1699419;82;20114;-76
2022/03/11 09:58:28;;;;;;;;;;;;;;;2.41;49.59;102884.11;1694469;82;20155;-76
2022/03/11 10:00:55;;;;;;;;;;;;;;;2.44;49.83;102886.84;1694458;82;20256;-76
2022/03/11 10:03:22;;;;;;;;;;;;;;;2.52;49.45;102879.58;1695713;82;20133;-77
2022/03/11 10:05:53;;;;;;;;;;;;;;;2.55;49.60;102879.75;1694753;82;20162;-77
2022/03/11 10:08:31;;;;;;;;;;;;;;;2.61;49.14;102863.44;1679863;82;20163;-77
2022/03/11 10:11:23;;;;;;;;;;;;;;;2.71;49.15;102870.78;1687698;82;20478;-76
2022/03/11 10:13:54;;;;;;;;;;;;;;;2.77;49.47;102872.38;1704509;82;20209;-76
2022/03/11 10:16:22;;;;;;;;;;;;;;;2.83;49.46;102873.98;1690316;82;20121;-76
2022/03/11 10:18:55;;;;;;;;;;;;;;;2.85;49.58;102871.50;1698295;82;20142;-76
2022/03/11 10:21:25;;;;;;;;;;;;;;;2.89;49.47;102880.68;1693501;82;20205;-75
2022/03/11 10:23:51;;;;;;;;;;;;;;;2.91;48.71;102875.65;1697352;82;20280;-75
2022/03/11 10:26:36;;;;;;;;;;;;;;;2.93;49.22;102874.05;1684205;82;20266;-76
2022/03/11 10:29:04;;;;;;;;;;;;;;;2.97;48.83;102870.86;1684597;82;20264;-76
2022/03/11 10:31:32;;;;;;;;;;;;;;;3.04;48.99;102883.55;1694441;82;20209;-74
2022/03/11 10:34:13;;;;;;;;;;;;;;;3.09;49.07;102891.05;1689471;82;20153;-77
2022/03/11 10:36:57;;;;;;;;;;;;;;;3.12;49.02;102885.66;1688757;82;20185;-74
2022/03/11 10:39:36;;;;;;;;;;;;;;;3.17;48.63;102873.11;1686567;82;20258;-74
2022/03/11 10:42:20;;;;;;;;;;;;;;;3.24;48.92;102882.45;1680151;82;20203;-73
2022/03/11 10:45:01;;;;;;;;;;;;;;;3.34;49.07;102877.39;1700821;82;20231;-75
2022/03/11 10:47:34;;;;;;;;;;;;;;;3.37;48.33;102872.83;1699708;82;20189;-75
2022/03/11 10:50:03;;;;;;;;;;;;;;;3.38;48.74;102869.08;1678451;82;20218;-75
2022/03/11 10:52:46;;;;;;;;;;;;;;;3.42;48.17;102876.09;1686897;82;20157;-75
2022/03/11 10:55:26;;;;;;;;;;;;;;;3.41;47.96;102860.27;1688107;82;20105;-75
2022/03/11 10:57:56;;;;;;;;;;;;;;;3.43;48.61;102870.18;1685846;82;20598;-75
2022/03/11 11:00:24;;;;;;;;;;;;;;;3.45;47.59;102865.14;1688281;82;20098;-75
2022/03/11 11:02:58;;;;;;;;;;;;;;;3.47;48.05;102859.70;1687779;82;20137;-76
2022/03/11 11:05:25;;;;;;;;;;;;;;;3.52;48.31;102862.95;1690074;82;20122;-75
2022/03/11 11:07:51;;;;;;;;;;;;;;;3.58;47.70;102854.30;1683381;82;20122;-75
2022/03/11 11:10:19;;;;;;;;;;;;;;;3.59;47.24;102857.34;1698980;82;20116;-75
2022/03/11 11:12:45;;;;;;;;;;;;;;;3.59;47.87;102848.79;1694527;82;20540;-75
2022/03/11 11:15:11;;;;;;;;;;;;;;;3.61;47.66;102837.83;1669376;84;20113;-75
2022/03/11 11:17:39;;;;;;;;;;;;;;;3.67;48.05;102834.65;1684734;82;20130;-75
2022/03/11 11:20:25;;;;;;;;;;;;;;;3.72;48.05;102842.14;1694059;82;20126;-75
2022/03/11 11:22:53;;;;;;;;;;;;;;;3.78;47.88;102837.72;1700182;82;20206;-75
2022/03/11 11:25:22;;;;;;;;;;;;;;;3.86;47.99;102840.24;1670244;82;37790;-76
2022/03/11 11:27:49;;;;;;;;;;;;;;;3.91;47.91;102823.42;1692252;82;20134;-76
2022/03/11 11:30:17;;;;;;;;;;;;;;;3.97;47.28;102828.42;1693279;82;20144;-75
2022/03/11 11:32:44;;;;;;;;;;;;;;;4.00;47.68;102828.97;1695077;82;20159;-75
2022/03/11 11:35:34;;;;;;;;;;;;;;;4.05;47.86;102820.22;1695505;82;20157;-75
2022/03/11 11:38:03;;;;;;;;;;;;;;;4.07;47.77;102823.73;1698431;82;20158;-75
2022/03/11 11:40:37;;;;;;;;;;;;;;;4.13;47.46;102832.56;1693735;82;20146;-75
2022/03/11 11:43:16;;;;;;;;;;;;;;;4.13;47.32;102816.33;1683638;82;20161;-75
2022/03/11 11:45:45;;;;;;;;;;;;;;;4.20;47.60;102815.77;1704441;82;20225;-75
2022/03/11 11:48:41;;;;;;;;;;;;;;;4.25;47.27;102819.41;1668233;82;20511;-75
2022/03/11 11:51:06;;;;;;;;;;;;;;;4.30;46.57;102817.53;1694479;82;20149;-75
2022/03/11 11:53:40;;;;;;;;;;;;;;;4.28;46.81;102806.34;1678800;83;20211;-75
2022/03/11 11:56:30;;;;;;;;;;;;;;;4.35;47.17;102809.18;1687496;82;20225;-75
2022/03/11 11:58:58;;;;;;;;;;;;;;;4.40;47.09;102803.45;1696203;82;20788;-76
2022/03/11 12:01:40;;;;;;;;;;;;;;;4.42;46.95;102804.40;1675949;82;20223;-75
2022/03/11 12:04:41;;;;;;;;;;;;;;;4.42;47.09;102797.99;1677430;82;20204;-75
2022/03/11 12:07:14;;;;;;;;;;;;;;;4.47;47.37;102797.79;1703625;82;20256;-75
2022/03/11 12:10:04;;;;;;;;;;;;;;;4.56;47.12;102793.07;1677717;82;20194;-75
2022/03/11 12:12:33;;;;;;;;;;;;;;;4.58;46.78;102784.17;1721594;82;20242;-76
2022/03/11 12:15:06;;;;;;;;;;;;;;;4.61;47.11;102782.61;1686040;82;20438;-75
2022/03/11 12:17:52;;;;;;;;;;;;;;;4.66;47.22;102780.25;1686718;82;20155;-75
2022/03/11 12:20:33;;;;;;;;;;;;;;;4.71;46.78;102791.55;1694159;82;20391;-77
2022/03/11 12:23:08;;;;;;;;;;;;;;;4.72;47.21;102787.30;1698278;82;20581;-76
2022/03/11 12:25:50;;;;;;;;;;;;;;;4.76;47.06;102786.20;1698305;82;20280;-77
2022/03/11 12:28:20;;;;;;;;;;;;;;;4.80;46.52;102785.94;1698201;82;20213;-77
2022/03/11 12:30:50;;;;;;;;;;;;;;;4.80;46.61;102775.28;1680477;82;20126;-77
2022/03/11 12:33:36;;;;;;;;;;;;;;;4.75;45.95;102779.33;1695741;82;20161;-78
2022/03/11 12:36:05;;;;;;;;;;;;;;;4.77;45.83;102769.14;1699309;82;20098;-78
2022/03/11 12:38:32;;;;;;;;;;;;;;;4.75;46.50;102775.89;1698758;82;20758;-79
2022/03/11 12:41:04;;;;;;;;;;;;;;;4.76;46.23;102769.95;1699689;82;20118;-77
2022/03/11 12:43:30;;;;;;;;;;;;;;;4.80;46.43;102761.18;1700439;82;20128;-77
2022/03/11 12:45:57;;;;;;;;;;;;;;;4.88;46.86;102761.50;1700613;82;20150;-77